This is the latest recevied weather packets stored in our database for station/object OH6LSL. If no packets are shown the sender has not sent any weather packets the latest 10 day(s).
| Time | Temp. | Humidity | Pressure | Rain* | Wind** | Luminosity | Snow |
|---|---|---|---|---|---|---|---|
| 1777523079 | 5.56° C | 34% | 1015.8 hPa | 0 mm | - | 32 W/m² | - |
| 1777517097 | 5° C | 29% | 1015.9 hPa | 0 mm | - | 9 W/m² | - |
| 1777512872 | 5° C | 33% | 1015.9 hPa | 0 mm | - | 0 W/m² | - |
| 1777511673 | 5° C | 33% | 1016.1 hPa | 0 mm | - | 0 W/m² | - |
| 1777508074 | 5° C | 32% | 1016.6 hPa | 0 mm | - | 0 W/m² | - |
| 1777507497 | 5° C | 32% | 1016.6 hPa | 0 mm | - | 0 W/m² | - |
| 1777502097 | 5° C | 33% | 1017 hPa | 0 mm | - | 0 W/m² | - |
| 1777501498 | 5° C | 34% | 1017.4 hPa | 0 mm | - | 0 W/m² | - |
| 1777498484 | 4.44° C | 35% | 1017.6 hPa | 0 mm | - | 0 W/m² | - |
| 1777497885 | 4.44° C | 36% | 1017.6 hPa | 0 mm | - | 0 W/m² | - |
| 1777497306 | 4.44° C | 36% | 1017.6 hPa | 0 mm | - | 0 W/m² | - |
| 1777496085 | 4.44° C | 38% | 1017.8 hPa | 0 mm | - | 0 W/m² | - |
| 1777494288 | 3.89° C | 42% | 1017.9 hPa | 0 mm | - | 0 W/m² | - |
| 1777492490 | 3.89° C | 45% | 1018.2 hPa | 0 mm | - | 0 W/m² | - |
| 1777490688 | 3.33° C | 50% | 1018.6 hPa | 0 mm | - | 0 W/m² | - |
| 1777490104 | 3.33° C | 51% | 1018.9 hPa | 0 mm | - | 0 W/m² | - |
| 1777488283 | 3.33° C | 57% | 1018.7 hPa | 0 mm | - | 5 W/m² | - |
| 1777485286 | 3.89° C | 65% | 1019 hPa | 0 mm | - | 14 W/m² | - |
| 1777484087 | 3.89° C | 66% | 1019.2 hPa | 0 mm | - | 18 W/m² | - |
| 1777482272 | 4.44° C | 65% | 1019.4 hPa | 0 mm | - | 44 W/m² | - |
| 1777479292 | 5.56° C | 61% | 1019.6 hPa | 0 mm | - | 67 W/m² | - |
| 1777474478 | 6.11° C | 41% | 1020.3 hPa | 0 mm | - | 144 W/m² | - |
| 1777471482 | 7.22° C | 43% | 1020.6 hPa | 0 mm | - | 160 W/m² | - |
| 1777469701 | 7.22° C | 41% | 1020.8 hPa | 0 mm | - | 232 W/m² | - |
| 1777469078 | 7.22° C | 42% | 1021 hPa | 0 mm | - | 278 W/m² | - |
* Rain latest hour (hover to see other rain measurements)
** Current wind speed in m/s (hover to see current wind gust speed)